Time;durP1;ratioP1;P1;durP2;ratioP2;P2;SDS_P1;SDS_P2;PMS_P1;PMS_P2;Temp;Humidity;BMP_temperature;BMP_pressure;BME280_temperature;BME280_humidity;BME280_pressure;Samples;Min_cycle;Max_cycle;Signal;HPM_P1;HPM_P2
2021/04/20 00:01:11;;;;;;;402.60;161.53;;;;;;;7.50;78.22;98472.47;5030459;28;20028;-61
2021/04/20 00:03:38;;;;;;;408.27;158.37;;;;;;;7.55;78.41;98465.63;5032725;28;20044;-61
2021/04/20 00:06:05;;;;;;;414.17;161.33;;;;;;;7.51;78.43;98465.66;5028205;28;20033;-61
2021/04/20 00:08:30;;;;;;;398.20;171.93;;;;;;;7.55;78.03;98460.50;5032741;28;20058;-61
2021/04/20 00:10:55;;;;;;;403.70;152.57;;;;;;;7.55;78.08;98463.06;5038290;28;20290;-61
2021/04/20 00:13:21;;;;;;;141.13;68.67;;;;;;;7.54;77.94;98460.53;5034499;28;20402;-61
2021/04/20 00:15:46;;;;;;;398.97;148.50;;;;;;;7.55;77.84;98462.22;5031838;28;20061;-61
2021/04/20 00:18:12;;;;;;;409.50;166.03;;;;;;;7.53;77.49;98456.28;5031390;28;20057;-62
2021/04/20 00:20:38;;;;;;;414.77;166.17;;;;;;;7.55;77.55;98452.00;5034969;28;20056;-60
2021/04/20 00:23:05;;;;;;;418.93;176.43;;;;;;;7.57;77.69;98457.94;5034806;28;20279;-60
2021/04/20 00:25:31;;;;;;;411.83;166.90;;;;;;;7.62;77.01;98456.19;5035599;28;20171;-60
2021/04/20 00:27:56;;;;;;;416.10;166.60;;;;;;;7.58;77.28;98445.16;5028620;28;20034;-61
2021/04/20 00:30:22;;;;;;;423.93;170.80;;;;;;;7.63;76.83;98451.06;5035242;28;20061;-60
2021/04/20 00:32:48;;;;;;;419.53;166.10;;;;;;;7.61;77.07;98462.13;5033865;28;20071;-60
2021/04/20 00:35:13;;;;;;;428.63;174.60;;;;;;;7.58;76.83;98451.97;5031246;28;20318;-60
2021/04/20 00:37:40;;;;;;;429.87;173.20;;;;;;;7.64;76.81;98455.28;5036221;28;20385;-60
2021/04/20 00:40:07;;;;;;;435.43;180.63;;;;;;;7.66;76.46;98452.75;5031104;28;20038;-61
2021/04/20 00:42:48;;;;;;;437.17;183.50;;;;;;;7.65;76.15;98441.69;5029128;28;20032;-60
2021/04/20 00:45:16;;;;;;;440.93;188.80;;;;;;;7.58;76.55;98446.88;5028306;28;20276;-60
2021/04/20 00:47:41;;;;;;;432.70;174.33;;;;;;;7.64;76.70;98447.66;5031550;28;20030;-60
2021/04/20 00:50:08;;;;;;;439.93;181.87;;;;;;;7.67;76.28;98439.97;5037103;28;20078;-60
2021/04/20 00:52:34;;;;;;;429.30;170.90;;;;;;;7.62;76.17;98443.44;5032386;28;20032;-60
2021/04/20 00:54:59;;;;;;;429.70;173.97;;;;;;;7.65;76.27;98433.19;5028989;28;20026;-61
2021/04/20 00:57:25;;;;;;;426.27;169.93;;;;;;;7.67;76.13;98437.44;5031539;28;20060;-60
2021/04/20 00:59:50;;;;;;;438.33;184.53;;;;;;;7.65;75.87;98435.72;5031546;28;20025;-60
2021/04/20 01:02:16;;;;;;;427.93;172.53;;;;;;;7.69;75.60;98422.09;5033760;28;20368;-62
2021/04/20 01:04:41;;;;;;;421.83;162.80;;;;;;;7.67;75.94;98423.81;5028584;28;20392;-60
2021/04/20 01:07:07;;;;;;;420.70;166.47;;;;;;;7.73;75.86;98429.69;5030141;28;20058;-61
2021/04/20 01:09:33;;;;;;;420.77;167.73;;;;;;;7.71;75.76;98433.97;5036538;28;20365;-61
2021/04/20 01:11:59;;;;;;;429.93;174.33;;;;;;;7.75;75.27;98434.78;5032274;28;20032;-59
2021/04/20 01:14:24;;;;;;;414.33;160.80;;;;;;;7.69;75.63;98435.69;5031956;28;20097;-62
2021/04/20 01:16:50;;;;;;;422.60;164.47;;;;;;;7.74;75.32;98430.53;5035427;28;20275;-61
2021/04/20 01:19:18;;;;;;;441.63;187.63;;;;;;;7.70;75.92;98444.19;5030474;28;20072;-60
2021/04/20 01:21:47;;;;;;;432.27;178.13;;;;;;;7.71;75.73;98445.88;5029184;28;20067;-62
2021/04/20 01:24:12;;;;;;;439.00;184.87;;;;;;;7.70;75.32;98445.03;5030465;28;20025;-60
2021/04/20 01:26:41;;;;;;;425.33;177.97;;;;;;;7.74;75.64;98446.69;5033329;28;20048;-60
2021/04/20 01:29:07;;;;;;;402.50;172.63;;;;;;;7.72;75.76;98442.47;5028866;28;20351;-60
2021/04/20 01:31:35;;;;;;;393.27;145.67;;;;;;;7.75;75.61;98450.94;5029489;28;20117;-60
2021/04/20 01:34:02;;;;;;;404.03;154.27;;;;;;;7.77;75.80;98439.00;5028757;28;20080;-59
2021/04/20 01:36:28;;;;;;;419.77;164.80;;;;;;;7.76;75.97;98444.13;5034751;28;20056;-60
2021/04/20 01:38:55;;;;;;;409.97;169.87;;;;;;;7.68;76.35;98445.94;5029125;28;20025;-60
2021/04/20 01:41:22;;;;;;;415.27;159.43;;;;;;;7.66;76.14;98445.09;5031538;28;20049;-61
2021/04/20 01:43:51;;;;;;;414.47;153.20;;;;;;;7.62;77.08;98441.72;5030078;28;20517;-61
2021/04/20 01:46:17;;;;;;;409.73;153.67;;;;;;;7.60;77.56;98442.59;5031405;28;20038;-61
2021/04/20 01:48:44;;;;;;;410.63;175.93;;;;;;;7.67;76.95;98437.44;5029302;28;20311;-61
2021/04/20 01:51:10;;;;;;;397.07;195.60;;;;;;;7.58;77.44;98434.97;5026136;28;20371;-61
2021/04/20 01:53:36;;;;;;;407.00;149.50;;;;;;;7.52;77.89;98436.72;5028201;28;20029;-61
2021/04/20 01:56:06;;;;;;;413.27;168.90;;;;;;;7.62;78.53;98438.31;5032123;28;20347;-64
2021/04/20 01:58:34;;;;;;;414.73;171.93;;;;;;;7.54;78.13;98435.00;5033084;28;20382;-64
2021/04/20 02:01:06;;;;;;;410.17;159.27;;;;;;;7.50;78.36;98431.66;5031473;28;20061;-64
2021/04/20 02:03:32;;;;;;;402.10;150.40;;;;;;;7.53;78.56;98435.88;5031447;28;20032;-64
2021/04/20 02:05:58;;;;;;;419.73;160.33;;;;;;;7.46;79.27;98435.09;5032278;28;20377;-65
2021/04/20 02:08:24;;;;;;;394.30;143.30;;;;;;;7.46;79.56;98434.25;5030814;28;20049;-64
2021/04/20 02:10:51;;;;;;;409.67;150.70;;;;;;;7.43;79.29;98430.00;5027034;28;20038;-64
2021/04/20 02:13:17;;;;;;;406.13;149.23;;;;;;;7.45;79.66;98437.66;5027921;28;20492;-65
2021/04/20 02:15:43;;;;;;;408.97;159.00;;;;;;;7.37;79.54;98432.63;5035291;28;20025;-65
2021/04/20 02:18:09;;;;;;;275.57;139.43;;;;;;;7.38;79.48;98430.94;5032308;28;20083;-65
2021/04/20 02:20:37;;;;;;;407.93;152.03;;;;;;;7.33;79.96;98431.81;5032513;28;20037;-65
2021/04/20 02:23:03;;;;;;;406.53;152.07;;;;;;;7.39;80.33;98430.91;5026802;28;20033;-65
2021/04/20 02:25:29;;;;;;;407.57;149.57;;;;;;;7.37;80.30;98431.78;5028292;28;20259;-66
2021/04/20 02:27:55;;;;;;;403.07;143.90;;;;;;;7.39;80.18;98430.91;5029243;28;20029;-66
2021/04/20 02:30:22;;;;;;;370.07;139.77;;;;;;;7.34;79.87;98428.38;5032396;28;20037;-64
2021/04/20 02:32:48;;;;;;;173.87;91.43;;;;;;;7.45;79.38;98427.44;5027942;28;20395;-65
2021/04/20 02:35:16;;;;;;;349.97;229.33;;;;;;;7.44;79.30;98421.50;5031666;28;20033;-64
2021/04/20 02:37:43;;;;;;;341.60;187.93;;;;;;;7.38;79.44;98419.03;5029575;28;20026;-65
2021/04/20 02:40:16;;;;;;;313.10;129.17;;;;;;;7.40;79.62;98424.09;5026492;28;20069;-65
2021/04/20 02:42:41;;;;;;;374.30;131.67;;;;;;;7.31;80.16;98415.69;5034133;28;20036;-66
2021/04/20 02:45:08;;;;;;;369.57;126.47;;;;;;;7.34;80.13;98425.03;5027183;28;20294;-65
2021/04/20 02:47:34;;;;;;;364.03;125.17;;;;;;;7.22;80.38;98417.47;5025272;28;20036;-65
2021/04/20 02:50:02;;;;;;;374.57;129.07;;;;;;;7.27;79.98;98415.72;5030756;28;20109;-65
2021/04/20 02:52:28;;;;;;;383.33;128.10;;;;;;;7.23;79.90;98419.16;5029110;28;20029;-66
2021/04/20 02:54:53;;;;;;;371.43;126.20;;;;;;;7.17;80.03;98407.28;5032598;28;20025;-65
2021/04/20 02:57:19;;;;;;;389.27;140.60;;;;;;;7.23;80.05;98422.56;5031982;28;20376;-67
2021/04/20 02:59:45;;;;;;;385.27;173.27;;;;;;;7.20;80.27;98417.50;5027658;28;20368;-65
2021/04/20 03:02:12;;;;;;;392.63;138.17;;;;;;;7.25;80.26;98422.53;5025073;28;20040;-67
2021/04/20 03:04:39;;;;;;;387.73;140.00;;;;;;;7.20;80.32;98414.94;5036893;28;20083;-65
2021/04/20 03:07:06;;;;;;;394.77;136.60;;;;;;;7.20;80.26;98409.84;5032719;28;20111;-66
2021/04/20 03:09:32;;;;;;;385.57;129.03;;;;;;;7.21;80.25;98408.97;5033695;28;20517;-65
2021/04/20 03:11:59;;;;;;;333.93;137.70;;;;;;;7.14;80.24;98407.34;5026624;28;20149;-67
2021/04/20 03:14:27;;;;;;;388.37;132.43;;;;;;;7.18;79.83;98409.00;5032830;28;20030;-67
2021/04/20 03:16:53;;;;;;;364.50;133.40;;;;;;;7.23;79.47;98407.25;5029369;28;20029;-67
2021/04/20 03:19:19;;;;;;;339.00;135.63;;;;;;;7.24;79.41;98403.00;5033291;28;20244;-69
2021/04/20 03:21:46;;;;;;;138.03;89.20;;;;;;;7.31;79.04;98399.53;5032067;28;20034;-68
2021/04/20 03:24:46;;;;;;;278.17;127.37;;;;;;;7.30;79.06;98396.13;5030162;28;20059;-68
2021/04/20 03:27:12;;;;;;;375.87;128.13;;;;;;;7.26;78.79;98391.06;5022408;28;20057;-67
2021/04/20 03:29:37;;;;;;;374.73;127.43;;;;;;;7.21;78.94;98397.94;5031606;28;20045;-70
2021/04/20 03:32:03;;;;;;;371.50;124.27;;;;;;;7.19;78.69;98399.66;5029202;28;20045;-64
2021/04/20 03:34:37;;;;;;;312.07;134.53;;;;;;;7.17;78.36;98401.38;5027412;28;20041;-64
2021/04/20 03:37:14;;;;;;;351.33;122.80;;;;;;;7.18;78.18;98406.44;5030110;28;20034;-67
2021/04/20 03:39:46;;;;;;;335.37;133.23;;;;;;;7.16;78.38;98410.72;5027268;28;20151;-65
2021/04/20 03:42:22;;;;;;;365.53;121.40;;;;;;;7.24;78.61;98408.94;5031978;28;20037;-65
2021/04/20 03:44:55;;;;;;;347.37;115.47;;;;;;;7.18;78.82;98403.03;5032783;28;20029;-65
2021/04/20 03:47:25;;;;;;;366.83;124.37;;;;;;;7.15;78.25;98403.94;5028929;28;20029;-65
2021/04/20 03:49:54;;;;;;;372.10;141.80;;;;;;;7.18;78.91;98403.03;5026552;28;20353;-67
2021/04/20 03:52:27;;;;;;;378.67;131.87;;;;;;;7.24;78.51;98395.34;5030922;28;20046;-67
2021/04/20 03:54:55;;;;;;;383.73;127.87;;;;;;;7.18;77.85;98403.91;5034483;28;20071;-67
2021/04/20 03:57:22;;;;;;;317.57;123.40;;;;;;;7.17;77.94;98407.28;5035618;28;20413;-66
2021/04/20 03:59:48;;;;;;;342.40;114.90;;;;;;;7.20;77.44;98402.19;5030852;28;20025;-67
2021/04/20 04:02:16;;;;;;;302.83;105.03;;;;;;;7.28;76.89;98402.97;5035238;28;20140;-66
2021/04/20 04:04:43;;;;;;;347.93;114.13;;;;;;;7.23;76.96;98409.81;5032953;28;20040;-66
2021/04/20 04:07:13;;;;;;;372.47;148.77;;;;;;;7.27;77.22;98414.00;5036747;28;20087;-66
2021/04/20 04:09:39;;;;;;;379.17;125.33;;;;;;;7.30;77.21;98405.47;5036185;28;20290;-67
2021/04/20 04:12:10;;;;;;;355.13;124.97;;;;;;;7.28;77.50;98410.63;5029264;28;20053;-66
2021/04/20 04:14:36;;;;;;;364.13;133.17;;;;;;;7.20;77.19;98397.09;5040183;28;20386;-66
2021/04/20 04:17:12;;;;;;;390.20;132.37;;;;;;;7.26;76.88;98411.47;5033274;28;20042;-67
2021/04/20 04:19:43;;;;;;;364.67;121.83;;;;;;;7.29;76.75;98416.56;5028536;28;20037;-66
2021/04/20 04:22:11;;;;;;;342.77;129.13;;;;;;;7.27;77.05;98419.13;5031108;28;20354;-64
2021/04/20 04:24:57;;;;;;;344.13;132.10;;;;;;;7.33;76.66;98420.78;5031432;28;20041;-64
2021/04/20 04:27:25;;;;;;;349.30;118.78;;;;;;;7.33;76.84;98413.97;5032792;28;20363;-66
2021/04/20 04:29:54;;;;;;;375.83;126.60;;;;;;;7.31;77.14;98413.13;5025849;28;20041;-65
2021/04/20 04:32:20;;;;;;;367.43;126.00;;;;;;;7.33;76.08;98408.88;5038975;28;20043;-66
2021/04/20 04:34:47;;;;;;;368.13;122.20;;;;;;;7.40;76.00;98419.00;5032199;28;20037;-66
2021/04/20 04:37:15;;;;;;;357.50;119.53;;;;;;;7.43;76.31;98413.84;5037196;28;20029;-67
2021/04/20 04:39:42;;;;;;;373.40;126.77;;;;;;;7.42;76.34;98418.13;5026334;28;20040;-66
2021/04/20 04:42:08;;;;;;;379.53;131.33;;;;;;;7.42;75.57;98418.13;5031329;28;20114;-66
2021/04/20 04:44:33;;;;;;;365.90;123.30;;;;;;;7.49;75.58;98429.97;5030798;28;20037;-66
2021/04/20 04:47:00;;;;;;;362.63;169.50;;;;;;;7.56;75.11;98423.91;5029263;28;20036;-67
2021/04/20 04:49:25;;;;;;;382.90;130.87;;;;;;;7.48;75.92;98428.25;5025135;28;20039;-67
2021/04/20 04:51:51;;;;;;;347.40;114.87;;;;;;;7.50;75.89;98435.91;5032297;28;20295;-67
2021/04/20 04:54:18;;;;;;;328.97;119.27;;;;;;;7.57;75.04;98434.97;5035190;28;20113;-67
2021/04/20 04:56:44;;;;;;;362.83;121.87;;;;;;;7.56;75.07;98434.13;5031942;28;20030;-67
2021/04/20 04:59:14;;;;;;;381.47;128.87;;;;;;;7.61;75.15;98440.03;5031205;28;20109;-67
2021/04/20 05:01:40;;;;;;;378.97;129.37;;;;;;;7.59;74.96;98434.13;5036153;28;20157;-67
2021/04/20 05:04:11;;;;;;;386.67;133.87;;;;;;;7.61;75.17;98439.19;5033272;28;20041;-67
2021/04/20 05:06:46;;;;;;;386.43;142.90;;;;;;;7.57;74.97;98432.41;5029611;28;20358;-66
2021/04/20 05:09:13;;;;;;;276.55;94.38;;;;;;;7.68;75.41;98436.53;5034862;28;20068;-66
2021/04/20 05:11:43;;;;;;;380.03;129.20;;;;;;;7.68;75.36;98436.53;5037175;28;20327;-67
2021/04/20 05:14:13;;;;;;;378.40;134.60;;;;;;;7.66;75.34;98437.44;5038356;28;20123;-66
2021/04/20 05:16:44;;;;;;;386.33;134.30;;;;;;;7.60;75.65;98451.09;5027722;28;20025;-66
2021/04/20 05:19:12;;;;;;;165.23;102.50;;;;;;;7.63;75.92;98455.34;5031921;28;20027;-67
2021/04/20 05:21:39;;;;;;;290.27;123.00;;;;;;;7.61;76.18;98445.13;5030377;28;20060;-67
2021/04/20 05:24:05;;;;;;;363.67;123.57;;;;;;;7.60;76.12;98445.13;5032154;28;20037;-67
2021/04/20 05:26:31;;;;;;;373.90;128.60;;;;;;;7.60;75.85;98445.97;5029575;28;20105;-66
2021/04/20 05:29:00;;;;;;;382.80;130.53;;;;;;;7.63;76.53;98448.53;5030199;28;20457;-67
2021/04/20 05:31:26;;;;;;;386.63;134.70;;;;;;;7.59;76.55;98448.56;5033136;28;20061;-67
2021/04/20 05:33:56;;;;;;;362.87;125.13;;;;;;;7.63;75.37;98450.22;5038236;28;20068;-66
2021/04/20 05:36:21;;;;;;;387.53;132.07;;;;;;;7.55;75.85;98449.47;5032417;28;20116;-64
2021/04/20 05:38:55;;;;;;;373.33;125.73;;;;;;;7.64;75.92;98462.94;5026474;28;20501;-64
2021/04/20 05:41:30;;;;;;;379.57;128.63;;;;;;;7.56;76.91;98451.13;5028098;28;20450;-64
2021/04/20 05:43:57;;;;;;;377.73;125.50;;;;;;;7.55;76.75;98459.66;5033907;28;20021;-65
2021/04/20 05:46:23;;;;;;;374.37;133.90;;;;;;;7.60;76.52;98448.53;5030797;28;20033;-65
2021/04/20 05:48:50;;;;;;;375.53;128.03;;;;;;;7.63;76.54;98452.78;5028099;28;20025;-64
2021/04/20 05:51:17;;;;;;;21.10;8.60;;;;;;;7.58;76.33;98462.19;5024057;28;20025;-65
2021/04/20 05:53:45;;;;;;;16.07;7.63;;;;;;;7.62;76.74;98456.19;5031530;28;20056;-64
2021/04/20 05:56:10;;;;;;;22.90;8.37;;;;;;;7.65;76.48;98451.03;5026057;28;20044;-64
2021/04/20 05:58:36;;;;;;;20.60;8.03;;;;;;;7.60;76.36;98453.63;5031498;28;20021;-62
2021/04/20 06:01:03;;;;;;;370.07;126.03;;;;;;;7.62;76.12;98451.94;5034799;28;20061;-65
2021/04/20 06:03:31;;;;;;;357.73;118.87;;;;;;;7.69;74.85;98460.34;5029572;28;20033;-66
2021/04/20 06:05:58;;;;;;;366.57;125.57;;;;;;;7.60;75.18;98451.09;5031287;28;20055;-63
2021/04/20 06:08:25;;;;;;;359.20;121.80;;;;;;;7.63;75.30;98465.53;5025331;28;20064;-63
2021/04/20 06:10:52;;;;;;;366.57;124.53;;;;;;;7.68;74.57;98462.06;5034253;28;20025;-63
2021/04/20 06:13:17;;;;;;;371.83;126.77;;;;;;;7.64;74.95;98454.44;5034394;28;20033;-63
2021/04/20 06:15:43;;;;;;;28.30;12.23;;;;;;;7.68;74.79;98469.72;5035693;28;20445;-63
2021/04/20 06:18:10;;;;;;;377.93;132.57;;;;;;;7.67;74.77;98465.50;5026111;28;20034;-63
2021/04/20 06:20:36;;;;;;;20.03;8.40;;;;;;;7.77;75.18;98459.41;5026216;28;20026;-63
2021/04/20 06:23:02;;;;;;;371.40;135.07;;;;;;;7.93;73.83;98467.78;5025928;28;20061;-63
2021/04/20 06:25:29;;;;;;;79.17;69.00;;;;;;;7.94;73.90;98471.13;5031740;28;20037;-64
2021/04/20 06:27:54;;;;;;;130.90;102.53;;;;;;;7.94;73.43;98474.53;5025584;28;20052;-63
2021/04/20 06:30:21;;;;;;;275.07;124.13;;;;;;;8.01;73.35;98470.22;5032444;28;20063;-64
2021/04/20 06:32:48;;;;;;;66.90;59.83;;;;;;;8.04;73.71;98458.28;5032634;28;20409;-63
2021/04/20 06:35:19;;;;;;;346.53;119.10;;;;;;;8.18;73.11;98460.66;5026659;28;20037;-63
2021/04/20 06:37:48;;;;;;;354.83;120.73;;;;;;;8.08;73.29;98469.28;5029408;28;20050;-64
2021/04/20 06:40:26;;;;;;;352.53;122.63;;;;;;;8.12;73.20;98465.84;5030751;28;20037;-63
2021/04/20 06:43:03;;;;;;;356.40;135.67;;;;;;;8.21;73.24;98458.91;5034515;28;20057;-63
2021/04/20 06:45:43;;;;;;;347.60;119.97;;;;;;;8.25;72.31;98465.66;5027910;28;20071;-63
2021/04/20 06:48:36;;;;;;;351.43;121.03;;;;;;;8.30;72.45;98462.25;5024921;28;20160;-63
2021/04/20 06:51:06;;;;;;;341.53;118.00;;;;;;;8.24;72.46;98469.09;5036262;28;20037;-63
2021/04/20 06:53:42;;;;;;;371.40;154.27;;;;;;;8.26;72.29;98467.38;5034572;28;20114;-63
2021/04/20 06:56:35;;;;;;;376.10;128.23;;;;;;;8.21;72.17;98474.25;5024525;28;20393;-63
2021/04/20 06:59:12;;;;;;;379.73;133.37;;;;;;;8.28;71.99;98465.63;5026785;28;20075;-64
2021/04/20 07:01:52;;;;;;;369.67;131.17;;;;;;;8.44;72.71;98478.25;5031063;28;20053;-64
2021/04/20 07:04:36;;;;;;;384.30;154.97;;;;;;;8.41;72.44;98480.81;5027924;28;20025;-63
2021/04/20 07:07:32;;;;;;;371.77;137.13;;;;;;;8.45;72.60;98482.47;5024831;28;20360;-63
2021/04/20 07:10:22;;;;;;;368.02;127.93;;;;;;;8.41;72.61;98489.34;5028615;28;20287;-65
2021/04/20 07:12:52;;;;;;;379.47;138.57;;;;;;;8.43;72.42;98495.28;5031709;28;20294;-63
2021/04/20 07:15:20;;;;;;;384.37;143.40;;;;;;;8.45;72.48;98490.13;5032357;28;20099;-63
2021/04/20 07:18:20;;;;;;;372.67;160.70;;;;;;;8.41;72.83;98499.56;5024319;28;20049;-63
2021/04/20 07:21:39;;;;;;;366.90;134.87;;;;;;;8.44;73.34;98499.53;5029237;28;20346;-63
2021/04/20 07:24:19;;;;;;;375.43;140.50;;;;;;;8.47;72.72;98502.03;4991931;28;20049;-64
2021/04/20 07:26:56;;;;;;;368.37;130.03;;;;;;;8.53;72.57;98506.25;4996739;28;20030;-64
2021/04/20 07:29:37;;;;;;;377.33;136.67;;;;;;;8.54;72.55;98498.53;4999329;28;20085;-64
2021/04/20 07:32:20;;;;;;;375.37;133.47;;;;;;;8.56;72.28;98499.38;4998186;28;20034;-64
2021/04/20 07:34:58;;;;;;;385.20;144.77;;;;;;;8.76;71.15;98488.88;4998310;28;20056;-64
2021/04/20 07:37:50;;;;;;;379.07;149.37;;;;;;;8.72;71.73;98487.22;4997860;28;20071;-64
2021/04/20 07:40:15;;;;;;;382.57;154.60;;;;;;;8.71;71.36;98495.75;4993376;28;20389;-64
2021/04/20 07:42:57;;;;;;;366.73;142.70;;;;;;;8.78;70.95;98487.16;4997946;28;20128;-64
2021/04/20 07:45:44;;;;;;;361.37;131.00;;;;;;;8.85;71.10;98488.75;4999090;28;20033;-64
2021/04/20 07:48:31;;;;;;;366.37;132.33;;;;;;;8.95;70.95;98490.31;4999357;28;20100;-64
2021/04/20 07:51:03;;;;;;;171.40;128.90;;;;;;;8.76;71.18;98486.31;4995392;28;20038;-64
2021/04/20 07:53:55;;;;;;;170.83;129.43;;;;;;;8.85;71.48;98491.31;4998148;28;20045;-64
2021/04/20 07:56:52;;;;;;;155.67;114.40;;;;;;;8.85;71.08;98505.78;5022430;28;20044;-64
2021/04/20 07:59:23;;;;;;;58.20;52.73;;;;;;;8.89;70.89;98503.16;5001063;28;20056;-64
2021/04/20 08:01:55;;;;;;;60.63;55.27;;;;;;;8.93;71.47;98502.25;5030893;28;20041;-64
2021/04/20 08:04:50;;;;;;;33.10;26.43;;;;;;;8.83;71.87;98500.69;5031763;28;20036;-64
2021/04/20 08:07:45;;;;;;;57.43;51.23;;;;;;;8.82;71.69;98516.91;5031582;28;20045;-64
2021/04/20 08:10:12;;;;;;;38.87;14.73;;;;;;;8.84;71.13;98509.22;5037376;28;20457;-64
2021/04/20 08:12:47;;;;;;;28.93;19.20;;;;;;;8.78;71.83;98511.88;5027988;28;20033;-64
2021/04/20 08:15:18;;;;;;;30.30;10.43;;;;;;;8.81;71.18;98499.03;5032594;28;20064;-64
2021/04/20 08:18:02;;;;;;;29.33;12.97;;;;;;;8.74;71.56;98518.72;5030379;28;20459;-64
2021/04/20 08:20:29;;;;;;;46.60;40.57;;;;;;;8.71;71.37;98514.50;5033401;28;20069;-64
2021/04/20 08:22:56;;;;;;;49.10;43.23;;;;;;;8.74;72.32;98515.34;5029840;28;20041;-64
2021/04/20 08:25:28;;;;;;;32.97;23.50;;;;;;;8.83;71.94;98505.81;5028066;28;20024;-64
2021/04/20 08:28:00;;;;;;;79.70;71.53;;;;;;;8.92;71.57;98505.69;5031383;28;20033;-63
2021/04/20 08:30:44;;;;;;;51.63;39.90;;;;;;;8.93;71.45;98509.06;5033724;28;20037;-63
2021/04/20 08:33:17;;;;;;;66.93;60.10;;;;;;;8.87;71.67;98507.44;5033233;28;20049;-63
2021/04/20 08:35:47;;;;;;;35.03;12.90;;;;;;;8.94;71.28;98514.19;5028317;28;20651;-63
2021/04/20 08:38:57;;;;;;;32.53;12.23;;;;;;;9.06;71.84;98508.88;5034476;28;20026;-63
2021/04/20 08:41:41;;;;;;;32.77;13.23;;;;;;;8.96;72.17;98509.88;5027535;28;20037;-63
2021/04/20 08:44:39;;;;;;;33.10;12.50;;;;;;;9.09;71.20;98528.44;5026563;28;20017;-63
2021/04/20 08:47:18;;;;;;;29.83;11.83;;;;;;;9.17;71.60;98516.38;5029849;28;20033;-64
2021/04/20 08:49:52;;;;;;;38.03;15.80;;;;;;;9.12;70.96;98508.78;5031522;28;20032;-63
2021/04/20 08:52:27;;;;;;;27.23;11.63;;;;;;;9.21;71.29;98506.97;5037230;28;20250;-64
2021/04/20 08:55:07;;;;;;;25.65;11.15;;;;;;;9.29;70.38;98517.94;5030548;28;20410;-68
2021/04/20 08:58:00;;;;;;;36.83;13.93;;;;;;;9.32;70.79;98503.38;5034268;28;20048;-67
2021/04/20 09:00:34;;;;;;;30.63;14.43;;;;;;;9.49;70.82;98500.53;5023440;28;20080;-67
2021/04/20 09:03:41;;;;;;;38.97;13.83;;;;;;;9.49;70.00;98497.97;5034314;28;20067;-67
2021/04/20 09:06:35;;;;;;;29.80;12.23;;;;;;;9.66;69.41;98495.97;4978783;28;20050;-67
2021/04/20 09:09:05;;;;;;;28.63;10.30;;;;;;;9.75;68.88;98506.06;4949947;28;20108;-67
2021/04/20 09:11:44;;;;;;;25.07;11.77;;;;;;;9.82;69.11;98499.94;4979949;28;20205;-66
2021/04/20 09:14:15;;;;;;;20.03;9.20;;;;;;;10.21;67.83;98488.13;4966035;28;20039;-67
2021/04/20 09:16:45;;;;;;;23.87;11.97;;;;;;;10.37;67.40;98489.50;4978254;28;20046;-67
2021/04/20 09:19:15;;;;;;;19.00;9.93;;;;;;;10.39;67.31;98489.50;4980647;28;20670;-66
2021/04/20 09:21:53;;;;;;;22.15;10.05;;;;;;;10.38;67.28;98488.63;4979863;28;20065;-67
2021/04/20 09:24:25;;;;;;;27.90;11.32;;;;;;;10.59;66.58;98489.91;4983165;28;20059;-67
2021/04/20 09:26:59;;;;;;;26.92;11.35;;;;;;;10.75;66.28;98491.25;4966127;28;20030;-67
2021/04/20 09:29:40;;;;;;;30.23;12.35;;;;;;;10.73;66.04;98489.63;4970159;28;20381;-66
2021/04/20 09:32:17;;;;;;;24.20;10.45;;;;;;;10.76;65.94;98487.81;4978909;28;20129;-67
2021/04/20 09:34:47;;;;;;;26.50;10.70;;;;;;;10.73;65.57;98500.72;4981890;28;20077;-67
2021/04/20 09:37:14;;;;;;;24.40;11.13;;;;;;;10.56;65.79;98491.69;5011771;28;20092;-67
2021/04/20 09:39:43;;;;;;;24.83;12.73;;;;;;;10.56;66.29;98502.78;5033639;28;20030;-67
2021/04/20 09:42:11;;;;;;;29.15;13.60;;;;;;;10.56;65.91;98496.81;5034297;28;20116;-67
2021/04/20 09:44:51;;;;;;;25.50;12.27;;;;;;;10.88;65.70;98491.81;5038835;28;20104;-67
2021/04/20 09:47:51;;;;;;;25.67;11.90;;;;;;;10.77;66.25;98492.09;5036017;28;20036;-66
2021/04/20 09:50:31;;;;;;;28.40;12.90;;;;;;;10.92;65.05;98491.72;5044008;28;20038;-67
2021/04/20 09:53:19;;;;;;;23.88;12.68;;;;;;;11.11;64.41;98492.16;5028349;28;20041;-62
2021/04/20 09:55:56;;;;;;;29.42;13.52;;;;;;;11.17;64.12;98493.72;5030615;28;20104;-60
2021/04/20 09:58:25;;;;;;;28.52;13.98;;;;;;;11.30;63.85;98487.41;5031462;28;20032;-62
2021/04/20 10:00:51;;;;;;;32.10;15.38;;;;;;;11.38;63.13;98485.50;5025546;28;20069;-62
2021/04/20 10:03:28;;;;;;;27.52;12.73;;;;;;;11.22;63.45;98491.88;5030184;28;20047;-62
2021/04/20 10:06:10;;;;;;;28.92;14.73;;;;;;;11.44;62.89;98493.91;5032684;28;20135;-62
2021/04/20 10:08:53;;;;;;;26.70;14.95;;;;;;;11.45;63.21;98498.19;5029603;28;20064;-62
2021/04/20 10:11:32;;;;;;;27.38;14.10;;;;;;;11.53;62.43;98499.69;5028835;28;20025;-62
2021/04/20 10:14:23;;;;;;;21.15;12.77;;;;;;;11.76;62.52;98495.69;5029102;28;20089;-62
2021/04/20 10:17:16;;;;;;;23.88;12.18;;;;;;;11.77;62.22;98493.97;5028011;28;20037;-66
2021/04/20 10:20:00;;;;;;;27.05;13.43;;;;;;;11.72;61.87;98495.81;5033719;28;20389;-69
2021/04/20 10:22:50;;;;;;;27.80;13.77;;;;;;;11.93;60.83;98499.53;5026243;28;20418;-64
2021/04/20 10:25:49;;;;;;;25.40;13.90;;;;;;;12.51;59.54;98491.91;5031646;28;20064;-65
2021/04/20 10:28:28;;;;;;;25.80;15.35;;;;;;;12.60;58.72;98489.06;5027126;28;20064;-64
2021/04/20 10:31:01;;;;;;;30.23;16.33;;;;;;;12.89;58.07;98485.63;5047179;28;20025;-64
2021/04/20 10:33:27;;;;;;;27.52;16.55;;;;;;;12.99;56.09;98493.88;5032941;28;20080;-62
2021/04/20 10:35:59;;;;;;;32.65;17.35;;;;;;;12.51;57.57;98498.78;5031690;28;20320;-62
2021/04/20 10:38:31;;;;;;;30.67;16.60;;;;;;;12.52;57.51;98497.91;5033924;28;20347;-62
2021/04/20 10:40:57;;;;;;;30.30;14.15;;;;;;;12.50;58.76;98490.22;5026369;28;20037;-62
2021/04/20 10:43:25;;;;;;;27.15;13.82;;;;;;;12.67;59.14;98497.44;5031046;28;20098;-62
2021/04/20 10:45:53;;;;;;;29.13;13.00;;;;;;;12.57;58.17;98496.03;5034982;28;20275;-62
2021/04/20 10:48:27;;;;;;;30.95;13.70;;;;;;;12.98;57.74;98481.94;5027766;28;20371;-63
2021/04/20 10:50:54;;;;;;;30.95;15.07;;;;;;;12.85;54.61;98480.63;5027805;28;20033;-62
2021/04/20 10:53:24;;;;;;;38.55;16.85;;;;;;;13.00;53.78;98478.41;5026437;28;20413;-64
2021/04/20 10:56:03;;;;;;;33.10;16.63;;;;;;;13.88;52.94;98477.25;5031577;28;20037;-62
2021/04/20 10:58:29;;;;;;;34.50;16.05;;;;;;;13.50;53.50;98475.97;5029331;28;20041;-63
2021/04/20 11:00:56;;;;;;;29.50;14.95;;;;;;;13.30;54.24;98475.78;5032022;28;20029;-62
2021/04/20 11:03:26;;;;;;;26.30;12.77;;;;;;;13.47;55.33;98473.50;5037594;28;20044;-62
2021/04/20 11:05:52;;;;;;;29.38;15.00;;;;;;;13.16;54.80;98474.50;5034549;28;20025;-64
2021/04/20 11:08:46;;;;;;;30.08;15.27;;;;;;;13.03;56.52;98462.88;5039563;28;20128;-64
2021/04/20 11:11:22;;;;;;;23.50;12.18;;;;;;;13.46;55.21;98461.50;5039564;28;20056;-64
2021/04/20 11:13:49;;;;;;;24.92;13.30;;;;;;;13.62;55.96;98463.53;5034695;28;20033;-64
2021/04/20 11:16:22;;;;;;;27.98;14.30;;;;;;;13.55;55.93;98464.63;5035102;28;20040;-64
2021/04/20 11:18:53;;;;;;;31.17;14.43;;;;;;;13.60;54.67;98459.31;5026732;28;20046;-64
2021/04/20 11:21:24;;;;;;;30.88;15.32;;;;;;;13.71;54.12;98460.63;5030187;28;20104;-63
2021/04/20 11:24:02;;;;;;;31.35;15.27;;;;;;;13.61;53.79;98463.59;5034350;28;20313;-64
2021/04/20 11:26:32;;;;;;;22.08;12.85;;;;;;;13.27;55.48;98459.56;5038725;28;20051;-64
2021/04/20 11:29:00;;;;;;;26.30;13.80;;;;;;;13.21;56.21;98451.19;5034526;28;20041;-64
2021/04/20 11:31:40;;;;;;;24.77;13.40;;;;;;;13.34;54.85;98451.63;5029748;28;20044;-64
2021/04/20 11:34:22;;;;;;;27.58;14.65;;;;;;;13.80;53.32;98435.44;5030951;28;20116;-64
2021/04/20 11:36:54;;;;;;;25.95;14.82;;;;;;;13.72;53.54;98449.44;5032392;28;20029;-64